Time;durP1;ratioP1;P1;durP2;ratioP2;P2;SDS_P1;SDS_P2;PMS_P1;PMS_P2;Temp;Humidity;BMP_temperature;BMP_pressure;BME280_temperature;BME280_humidity;BME280_pressure;Samples;Min_cycle;Max_cycle;Signal;HPM_P1;HPM_P2
2023/12/29 00:01:48;;;;;;;2.87;2.50;;;11.00;99.90;;;;;;5075752;28;20412;-69
2023/12/29 00:04:13;;;;;;;2.60;2.40;;;11.10;99.90;;;;;;5075164;28;20545;-70
2023/12/29 00:06:40;;;;;;;3.30;3.00;;;11.20;99.90;;;;;;5075386;28;20327;-70
2023/12/29 00:09:05;;;;;;;3.63;2.73;;;11.10;99.90;;;;;;5075443;28;20211;-70
2023/12/29 00:11:32;;;;;;;3.00;2.70;;;11.30;99.90;;;;;;5075407;28;20475;-70
2023/12/29 00:13:58;;;;;;;2.83;2.60;;;11.20;99.90;;;;;;5075626;28;20211;-70
2023/12/29 00:16:23;;;;;;;3.50;2.87;;;11.40;99.90;;;;;;5075400;28;20467;-70
2023/12/29 00:18:49;;;;;;;2.73;2.53;;;11.40;99.90;;;;;;5075350;28;20179;-70
2023/12/29 00:21:14;;;;;;;3.07;2.50;;;11.50;99.90;;;;;;5075200;28;20166;-70
2023/12/29 00:23:40;;;;;;;3.30;2.70;;;11.60;99.90;;;;;;5075255;28;20255;-69
2023/12/29 00:26:06;;;;;;;3.47;2.73;;;11.60;99.90;;;;;;5075306;28;20740;-70
2023/12/29 00:28:31;;;;;;;2.90;2.60;;;11.60;99.90;;;;;;5075380;28;20182;-70
2023/12/29 00:30:57;;;;;;;2.53;2.27;;;11.40;99.90;;;;;;5074888;28;20638;-70
2023/12/29 00:33:23;;;;;;;4.27;3.10;;;11.40;99.90;;;;;;5073817;28;20174;-70
2023/12/29 00:35:48;;;;;;;2.70;2.50;;;11.40;99.90;;;;;;5075167;28;20282;-70
2023/12/29 00:38:14;;;;;;;3.03;2.70;;;11.30;99.90;;;;;;5074935;28;20169;-70
2023/12/29 00:40:39;;;;;;;2.40;2.20;;;11.40;99.90;;;;;;5074885;28;20170;-70
2023/12/29 00:43:05;;;;;;;4.13;2.43;;;11.30;99.90;;;;;;5074422;28;20181;-70
2023/12/29 00:45:32;;;;;;;2.70;2.50;;;11.40;99.90;;;;;;5074765;28;20285;-71
2023/12/29 00:47:59;;;;;;;3.00;2.60;;;11.40;99.90;;;;;;5074779;28;20230;-70
2023/12/29 00:50:26;;;;;;;2.63;2.30;;;11.50;99.90;;;;;;5056721;28;20435;-70
2023/12/29 00:52:52;;;;;;;3.60;3.20;;;11.50;99.90;;;;;;5074782;28;20529;-70
2023/12/29 00:55:17;;;;;;;3.73;3.13;;;11.50;99.90;;;;;;5074383;28;20558;-70
2023/12/29 00:57:43;;;;;;;2.67;2.43;;;11.40;99.90;;;;;;5074532;28;20184;-70
2023/12/29 01:00:11;;;;;;;2.90;2.60;;;11.40;99.90;;;;;;5074510;28;20250;-70
2023/12/29 01:02:37;;;;;;;3.10;2.80;;;11.60;99.90;;;;;;5074521;28;20275;-70
2023/12/29 01:05:03;;;;;;;3.03;2.67;;;11.50;99.90;;;;;;5074766;28;20440;-70
2023/12/29 01:07:28;;;;;;;2.63;2.43;;;11.40;99.90;;;;;;5074371;28;20555;-70
2023/12/29 01:09:54;;;;;;;3.17;2.90;;;11.60;99.90;;;;;;5074466;28;20408;-71
2023/12/29 01:12:19;;;;;;;3.20;2.73;;;11.70;99.90;;;;;;5074313;28;20723;-71
2023/12/29 01:14:45;;;;;;;3.77;3.00;;;11.80;99.90;;;;;;5074161;28;20174;-71
2023/12/29 01:17:10;;;;;;;4.10;3.23;;;11.50;99.90;;;;;;5064447;28;20219;-70
2023/12/29 01:19:36;;;;;;;4.03;3.33;;;11.30;99.90;;;;;;5074353;28;20209;-70
2023/12/29 01:22:02;;;;;;;4.23;3.17;;;11.50;99.90;;;;;;5074348;28;20166;-70
2023/12/29 01:24:27;;;;;;;2.97;2.67;;;11.50;99.90;;;;;;5074746;28;20192;-70
2023/12/29 01:26:53;;;;;;;3.13;2.83;;;11.50;99.90;;;;;;5074071;28;20362;-68
2023/12/29 01:29:18;;;;;;;2.80;2.60;;;11.50;99.90;;;;;;5056416;28;20638;-68
2023/12/29 01:31:44;;;;;;;3.50;3.07;;;11.50;99.90;;;;;;5074503;28;20682;-69
2023/12/29 01:34:09;;;;;;;2.50;2.30;;;11.50;99.90;;;;;;5074429;28;20173;-70
2023/12/29 01:36:35;;;;;;;3.33;3.03;;;11.40;99.90;;;;;;5073650;28;20186;-70
2023/12/29 01:39:02;;;;;;;3.57;3.27;;;11.30;99.90;;;;;;5075871;28;20528;-70
2023/12/29 01:41:29;;;;;;;3.07;2.87;;;11.30;99.90;;;;;;5074802;28;20184;-70
2023/12/29 01:44:00;;;;;;;3.30;3.00;;;11.30;99.90;;;;;;5074192;28;20418;-70
2023/12/29 01:46:28;;;;;;;3.47;3.17;;;11.20;99.90;;;;;;5073928;28;20431;-70
2023/12/29 01:48:54;;;;;;;3.73;3.43;;;11.30;99.90;;;;;;5074043;28;20412;-70
2023/12/29 01:51:24;;;;;;;3.40;3.10;;;11.40;99.90;;;;;;5074150;28;20442;-69
2023/12/29 01:53:51;;;;;;;3.80;3.13;;;11.40;99.90;;;;;;5073860;28;20457;-69
2023/12/29 01:56:16;;;;;;;4.60;3.80;;;11.30;99.90;;;;;;5073342;28;20466;-69
2023/12/29 01:58:44;;;;;;;3.60;3.30;;;11.20;99.90;;;;;;5073879;28;20447;-68
2023/12/29 02:01:10;;;;;;;3.50;3.20;;;11.30;99.90;;;;;;5073223;28;20420;-70
2023/12/29 02:03:36;;;;;;;3.30;2.80;;;11.30;99.90;;;;;;5073277;28;20817;-70
2023/12/29 02:06:02;;;;;;;5.47;3.37;;;11.40;99.90;;;;;;5073761;28;20420;-69
2023/12/29 02:08:29;;;;;;;3.23;2.93;;;11.40;99.90;;;;;;5073772;28;20436;-71
2023/12/29 02:10:55;;;;;;;3.37;3.07;;;11.30;99.90;;;;;;5073374;28;20899;-71
2023/12/29 02:13:22;;;;;;;3.57;3.30;;;11.30;99.90;;;;;;5073482;28;20416;-69
2023/12/29 02:15:50;;;;;;;4.83;3.90;;;11.30;99.90;;;;;;5073335;28;20193;-68
2023/12/29 02:18:17;;;;;;;3.60;3.30;;;11.20;99.90;;;;;;5071445;28;20413;-70
2023/12/29 02:20:43;;;;;;;3.47;3.10;;;11.30;99.90;;;;;;5073188;28;20403;-70
2023/12/29 02:23:09;;;;;;;3.90;3.50;;;11.30;99.90;;;;;;5073433;28;20894;-70
2023/12/29 02:25:34;;;;;;;3.77;3.47;;;11.30;99.90;;;;;;5073257;28;20531;-70
2023/12/29 02:28:03;;;;;;;3.70;3.20;;;11.40;99.90;;;;;;5072978;28;20433;-70
2023/12/29 02:30:38;;;;;;;6.10;3.40;;;11.50;99.90;;;;;;5073301;28;20170;-70
2023/12/29 02:33:07;;;;;;;5.63;3.50;;;11.60;99.90;;;;;;5073221;28;20516;-70
2023/12/29 02:35:39;;;;;;;4.40;3.20;;;11.80;99.90;;;;;;5073190;28;20433;-70
2023/12/29 02:38:04;;;;;;;3.30;3.00;;;11.80;99.90;;;;;;5072629;28;20476;-70
2023/12/29 02:40:30;;;;;;;4.40;4.00;;;11.60;99.90;;;;;;5073170;28;20465;-70
2023/12/29 02:42:56;;;;;;;4.37;3.97;;;11.50;99.90;;;;;;5073527;28;20202;-70
2023/12/29 02:45:21;;;;;;;3.80;3.47;;;11.60;99.90;;;;;;5071589;28;20170;-70
2023/12/29 02:47:48;;;;;;;5.20;3.73;;;11.50;99.90;;;;;;5072848;28;20633;-70
2023/12/29 02:50:14;;;;;;;6.63;3.93;;;11.50;99.90;;;;;;5073134;28;20167;-70
2023/12/29 02:52:39;;;;;;;4.17;3.87;;;11.40;99.90;;;;;;5072804;28;20446;-70
2023/12/29 02:55:05;;;;;;;3.30;3.00;;;11.40;99.90;;;;;;5072804;28;20219;-70
2023/12/29 02:57:31;;;;;;;3.80;3.50;;;11.20;99.90;;;;;;5115498;22;20231;-71
2023/12/29 02:59:56;;;;;;;4.33;3.93;;;11.30;99.90;;;;;;5097164;28;20157;-70
2023/12/29 03:02:23;;;;;;;4.73;3.90;;;11.30;99.90;;;;;;5096989;28;20205;-70
2023/12/29 03:04:49;;;;;;;3.63;3.23;;;11.20;99.90;;;;;;5097410;28;20288;-70
2023/12/29 03:07:14;;;;;;;3.50;3.20;;;11.10;99.90;;;;;;5111217;28;20426;-70
2023/12/29 03:09:40;;;;;;;4.23;3.83;;;11.10;99.90;;;;;;5117553;28;20538;-70
2023/12/29 03:12:06;;;;;;;4.87;4.17;;;11.10;99.90;;;;;;5117231;28;20585;-70
2023/12/29 03:14:32;;;;;;;3.87;3.57;;;11.10;99.90;;;;;;5099022;28;20515;-70
2023/12/29 03:16:57;;;;;;;4.40;3.30;;;11.10;99.90;;;;;;5116846;28;20192;-70
2023/12/29 03:19:23;;;;;;;4.27;3.90;;;11.00;99.90;;;;;;5118981;28;20186;-70
2023/12/29 03:21:49;;;;;;;5.80;3.83;;;10.90;99.90;;;;;;5116724;28;20173;-70
2023/12/29 03:24:14;;;;;;;3.90;3.60;;;10.90;99.90;;;;;;5117002;28;20168;-70
2023/12/29 03:26:40;;;;;;;4.27;3.67;;;10.80;99.90;;;;;;5116561;28;20229;-70
2023/12/29 03:29:06;;;;;;;4.17;3.60;;;10.80;99.90;;;;;;5117069;28;20195;-70
2023/12/29 03:31:32;;;;;;;4.00;3.70;;;10.80;99.90;;;;;;5117288;28;20473;-70
2023/12/29 03:33:57;;;;;;;4.30;3.87;;;10.80;99.90;;;;;;5117619;28;20226;-70
2023/12/29 03:36:23;;;;;;;4.73;3.53;;;10.70;99.90;;;;;;5117230;28;20318;-71
2023/12/29 03:38:48;;;;;;;4.63;2.87;;;10.70;99.90;;;;;;5116969;28;20580;-70
2023/12/29 03:41:14;;;;;;;3.90;3.30;;;10.60;99.90;;;;;;5116741;28;20633;-71
2023/12/29 03:43:39;;;;;;;4.47;3.60;;;10.70;99.90;;;;;;5116630;28;20221;-69
2023/12/29 03:46:18;;;;;;;4.90;3.47;;;10.70;99.90;;;;;;5116266;28;20190;-71
2023/12/29 03:48:44;;;;;;;3.63;3.20;;;10.60;99.90;;;;;;5116707;28;20224;-71
2023/12/29 03:51:10;;;;;;;3.53;3.20;;;10.60;99.90;;;;;;5116357;28;20438;-71
2023/12/29 03:53:35;;;;;;;3.43;3.13;;;10.60;99.90;;;;;;5116597;28;20488;-70
2023/12/29 03:56:05;;;;;;;3.60;3.23;;;10.60;99.90;;;;;;5115984;28;20203;-71
2023/12/29 03:58:30;;;;;;;3.80;3.40;;;10.60;99.90;;;;;;5095864;28;20537;-69
2023/12/29 04:00:56;;;;;;;4.60;3.70;;;10.70;99.90;;;;;;5097642;28;20406;-71
2023/12/29 04:03:21;;;;;;;4.13;3.73;;;10.70;99.90;;;;;;5097736;28;20595;-70
2023/12/29 04:05:47;;;;;;;3.07;2.87;;;10.70;99.90;;;;;;5116197;28;20168;-70
2023/12/29 04:08:13;;;;;;;2.93;2.70;;;10.60;99.90;;;;;;5098094;28;20287;-71
2023/12/29 04:10:38;;;;;;;3.30;3.00;;;10.70;99.90;;;;;;5095743;28;20175;-71
2023/12/29 04:13:04;;;;;;;3.63;3.40;;;10.60;99.90;;;;;;5095592;28;20571;-71
2023/12/29 04:15:30;;;;;;;3.40;3.10;;;10.60;99.90;;;;;;5094414;28;20656;-71
2023/12/29 04:17:56;;;;;;;5.33;3.27;;;10.70;99.90;;;;;;5110614;28;20420;-71
2023/12/29 04:20:21;;;;;;;3.33;3.03;;;10.60;99.90;;;;;;5116188;28;20173;-71
2023/12/29 04:22:47;;;;;;;3.53;3.23;;;10.60;99.90;;;;;;5114372;28;20179;-69
2023/12/29 04:25:12;;;;;;;5.47;2.90;;;10.50;99.90;;;;;;5116308;28;20255;-71
2023/12/29 04:27:39;;;;;;;3.50;3.20;;;10.50;99.90;;;;;;5115736;28;20201;-70
2023/12/29 04:30:05;;;;;;;3.63;3.00;;;10.60;99.90;;;;;;5115590;28;20638;-70
2023/12/29 04:32:31;;;;;;;3.40;3.10;;;10.60;99.90;;;;;;5115528;28;20540;-71
2023/12/29 04:34:57;;;;;;;4.50;3.17;;;10.60;99.90;;;;;;5115510;28;20870;-70
2023/12/29 04:37:22;;;;;;;3.57;3.03;;;10.60;99.90;;;;;;5115254;28;20193;-70
2023/12/29 04:39:48;;;;;;;3.17;2.87;;;10.60;99.90;;;;;;5116103;28;20221;-70
2023/12/29 04:42:13;;;;;;;2.40;2.20;;;10.60;99.90;;;;;;5116303;28;20192;-70
2023/12/29 04:44:39;;;;;;;3.33;3.03;;;10.60;99.90;;;;;;5115593;28;20177;-70
2023/12/29 04:47:04;;;;;;;3.00;2.70;;;10.50;99.90;;;;;;5114613;28;20190;-70
2023/12/29 04:49:30;;;;;;;3.37;3.07;;;10.50;99.90;;;;;;5096756;28;20518;-69
2023/12/29 04:51:55;;;;;;;3.53;3.23;;;10.50;99.90;;;;;;5115295;28;20541;-70
2023/12/29 04:54:21;;;;;;;4.00;3.10;;;10.60;99.90;;;;;;5096985;28;20211;-70
2023/12/29 04:56:46;;;;;;;3.43;3.00;;;10.70;99.90;;;;;;5114840;28;20206;-70
2023/12/29 04:59:12;;;;;;;2.90;2.67;;;10.70;99.90;;;;;;5114981;28;20292;-71
2023/12/29 05:01:38;;;;;;;3.83;3.53;;;10.80;99.90;;;;;;5114865;28;20171;-70
2023/12/29 05:04:03;;;;;;;3.90;3.30;;;10.80;99.90;;;;;;5114840;28;20182;-70
2023/12/29 05:06:29;;;;;;;4.00;3.30;;;10.80;99.90;;;;;;5115259;28;20719;-70
2023/12/29 05:08:54;;;;;;;2.67;2.47;;;10.70;99.90;;;;;;5114986;28;20171;-70
2023/12/29 05:11:20;;;;;;;3.07;2.87;;;10.80;99.90;;;;;;5115252;28;20240;-70
2023/12/29 05:13:45;;;;;;;4.10;3.20;;;10.90;99.90;;;;;;5114996;28;20505;-71
2023/12/29 05:16:11;;;;;;;4.83;3.10;;;10.90;99.90;;;;;;5114508;28;20208;-70
2023/12/29 05:18:36;;;;;;;3.13;2.83;;;11.00;99.90;;;;;;5114023;28;20169;-71
2023/12/29 05:21:02;;;;;;;3.57;3.17;;;11.00;99.90;;;;;;5114113;28;20604;-69
2023/12/29 05:23:27;;;;;;;3.20;3.00;;;11.00;99.90;;;;;;5113031;28;20643;-70
2023/12/29 05:25:53;;;;;;;3.07;2.77;;;10.90;99.90;;;;;;5114162;28;20204;-70
2023/12/29 05:28:18;;;;;;;3.07;2.77;;;11.10;99.90;;;;;;5114132;28;20173;-71
2023/12/29 05:30:44;;;;;;;3.13;2.83;;;11.20;99.90;;;;;;5114419;28;20188;-71
2023/12/29 05:33:10;;;;;;;3.00;2.73;;;11.20;99.90;;;;;;5114971;28;20249;-71
2023/12/29 05:35:35;;;;;;;3.83;3.47;;;11.30;99.90;;;;;;5114157;28;20725;-70
2023/12/29 05:38:01;;;;;;;3.30;2.90;;;11.30;99.90;;;;;;5114096;28;20225;-71
2023/12/29 05:40:26;;;;;;;2.80;2.60;;;11.40;99.90;;;;;;5113927;28;20165;-71
2023/12/29 05:42:52;;;;;;;5.40;3.53;;;11.30;99.90;;;;;;5114219;28;20161;-70
2023/12/29 05:45:18;;;;;;;5.20;3.33;;;11.30;99.90;;;;;;5113944;28;20530;-71
2023/12/29 05:47:43;;;;;;;3.20;3.00;;;11.30;99.90;;;;;;5113617;28;20308;-70
2023/12/29 05:50:09;;;;;;;3.37;3.07;;;11.10;99.90;;;;;;5114188;28;20623;-70
2023/12/29 05:52:35;;;;;;;3.57;3.00;;;11.00;99.90;;;;;;5114819;28;20195;-70
2023/12/29 05:55:00;;;;;;;3.77;3.37;;;10.90;99.90;;;;;;5115255;28;20740;-71
2023/12/29 05:57:26;;;;;;;3.40;3.10;;;11.10;99.90;;;;;;5115632;28;20246;-71
2023/12/29 05:59:52;;;;;;;4.27;3.23;;;11.10;99.90;;;;;;5115307;28;20171;-70
2023/12/29 06:02:17;;;;;;;4.27;3.17;;;11.20;99.90;;;;;;5113890;28;20414;-71
2023/12/29 06:04:43;;;;;;;3.30;2.93;;;11.00;99.90;;;;;;5113116;28;20182;-70
2023/12/29 06:07:09;;;;;;;4.50;3.33;;;11.00;99.90;;;;;;5106633;28;20279;-70
2023/12/29 06:09:34;;;;;;;3.90;3.60;;;11.00;99.90;;;;;;5093073;28;20297;-69
2023/12/29 06:12:00;;;;;;;3.30;3.00;;;11.00;99.90;;;;;;5093110;28;20200;-70
2023/12/29 06:14:25;;;;;;;3.93;3.60;;;11.00;99.90;;;;;;5092950;28;20240;-70
2023/12/29 06:16:52;;;;;;;3.03;2.83;;;11.10;99.90;;;;;;5097286;28;20678;-69
2023/12/29 06:19:18;;;;;;;4.10;3.70;;;11.00;99.90;;;;;;5113416;28;20579;-70
2023/12/29 06:21:43;;;;;;;2.83;2.63;;;11.00;99.90;;;;;;5113171;28;20442;-69
2023/12/29 06:24:11;;;;;;;3.60;3.30;;;11.00;99.90;;;;;;5113290;28;20643;-70
2023/12/29 06:26:41;;;;;;;3.00;2.80;;;11.00;99.90;;;;;;5112951;28;20192;-70
2023/12/29 06:29:08;;;;;;;3.00;2.70;;;10.90;99.90;;;;;;5113215;28;20410;-69
2023/12/29 06:31:33;;;;;;;3.70;2.80;;;10.90;99.90;;;;;;5111545;28;20448;-68
2023/12/29 06:34:00;;;;;;;3.00;2.80;;;10.80;99.90;;;;;;5113098;28;20398;-70
2023/12/29 06:36:26;;;;;;;4.57;3.30;;;10.70;99.90;;;;;;5113074;28;20233;-70
2023/12/29 06:38:52;;;;;;;5.80;3.10;;;10.70;99.90;;;;;;5113513;28;20402;-70
2023/12/29 06:41:18;;;;;;;3.33;3.03;;;10.80;99.90;;;;;;5113294;28;20218;-70
2023/12/29 06:43:44;;;;;;;3.57;2.20;;;10.70;99.90;;;;;;5113162;28;20463;-70
2023/12/29 06:46:09;;;;;;;3.63;2.60;;;10.70;99.90;;;;;;5112829;28;20421;-69
2023/12/29 06:48:36;;;;;;;2.80;2.60;;;10.80;99.90;;;;;;5113167;28;20244;-69
2023/12/29 06:51:02;;;;;;;2.67;2.47;;;10.70;99.90;;;;;;5112831;28;20153;-69
2023/12/29 06:53:27;;;;;;;2.50;2.30;;;10.70;99.90;;;;;;5112906;28;20962;-69
2023/12/29 06:55:53;;;;;;;7.33;2.50;;;10.70;99.90;;;;;;5112999;28;20215;-70
2023/12/29 06:58:18;;;;;;;3.33;2.80;;;10.60;99.90;;;;;;5113312;28;20183;-69
2023/12/29 07:00:44;;;;;;;3.03;2.83;;;10.60;99.90;;;;;;5112898;28;20168;-71
2023/12/29 07:03:12;;;;;;;4.10;2.90;;;;;;;;;;5113077;28;20198;-70
2023/12/29 07:05:38;;;;;;;2.63;2.43;;;10.60;99.90;;;;;;5112854;28;20172;-70
2023/12/29 07:08:04;;;;;;;3.00;2.70;;;10.70;99.90;;;;;;5113050;28;20406;-70
2023/12/29 07:10:29;;;;;;;3.13;2.80;;;10.70;99.90;;;;;;5112916;28;20257;-71
2023/12/29 07:12:55;;;;;;;2.93;2.70;;;10.70;99.90;;;;;;5112777;28;20189;-71
2023/12/29 07:15:22;;;;;;;3.93;2.90;;;10.80;99.90;;;;;;5112714;28;20172;-70
2023/12/29 07:17:48;;;;;;;3.13;2.70;;;10.90;99.90;;;;;;5112724;28;20208;-70
2023/12/29 07:20:13;;;;;;;3.10;2.60;;;10.90;99.90;;;;;;5112833;28;20437;-70
2023/12/29 07:22:39;;;;;;;3.10;2.50;;;11.00;99.90;;;;;;5112628;28;20177;-70
2023/12/29 07:25:05;;;;;;;2.47;2.27;;;11.10;99.90;;;;;;5112831;28;20172;-70
2023/12/29 07:27:30;;;;;;;3.07;2.60;;;11.00;99.90;;;;;;5112299;28;20521;-70
2023/12/29 07:29:57;;;;;;;2.70;2.50;;;11.20;99.90;;;;;;5112998;28;20402;-70
2023/12/29 07:32:22;;;;;;;2.77;2.57;;;11.10;99.90;;;;;;5112664;28;20196;-70
2023/12/29 07:34:48;;;;;;;5.00;2.73;;;11.00;99.90;;;;;;5112871;28;20836;-68
2023/12/29 07:37:14;;;;;;;3.00;2.70;;;10.80;99.90;;;;;;5112634;28;20250;-70
2023/12/29 07:39:40;;;;;;;2.73;2.47;;;10.80;99.90;;;;;;5113216;28;20805;-70
2023/12/29 07:42:05;;;;;;;3.40;2.40;;;10.80;99.90;;;;;;5113195;28;20173;-70
2023/12/29 07:44:31;;;;;;;3.70;2.50;;;10.80;99.90;;;;;;5116564;28;20173;-70
2023/12/29 07:46:59;;;;;;;3.50;2.70;;;10.90;99.90;;;;;;5116499;28;20567;-70
2023/12/29 07:49:26;;;;;;;6.50;3.37;;;10.90;99.90;;;;;;5116792;28;20255;-70
2023/12/29 07:51:51;;;;;;;2.73;2.53;;;11.10;99.90;;;;;;5116124;28;20453;-70
2023/12/29 07:54:17;;;;;;;2.93;2.37;;;11.10;99.90;;;;;;5116283;28;20420;-69
2023/12/29 07:56:43;;;;;;;2.97;2.60;;;11.10;99.90;;;;;;5115941;28;20612;-70
2023/12/29 07:59:08;;;;;;;2.80;2.60;;;11.10;99.90;;;;;;5116115;28;20175;-69
2023/12/29 08:01:34;;;;;;;3.20;2.50;;;11.20;99.90;;;;;;5115829;28;20208;-67
2023/12/29 08:03:59;;;;;;;2.57;2.37;;;11.10;99.90;;;;;;5115296;28;20181;-71
2023/12/29 08:06:25;;;;;;;2.30;2.10;;;11.10;99.90;;;;;;5115811;28;20185;-70
2023/12/29 08:08:51;;;;;;;2.60;2.13;;;11.10;99.90;;;;;;5116047;28;20161;-71
2023/12/29 08:11:17;;;;;;;2.80;2.60;;;11.20;99.90;;;;;;5115769;28;20246;-69
2023/12/29 08:13:47;;;;;;;2.43;2.23;;;11.30;99.90;;;;;;5116552;28;20164;-71
2023/12/29 08:16:13;;;;;;;3.23;2.57;;;11.40;99.90;;;;;;5116769;28;20917;-70
2023/12/29 08:18:39;;;;;;;3.33;2.87;;;11.40;99.90;;;;;;5116867;28;20410;-70
2023/12/29 08:21:04;;;;;;;2.53;2.30;;;11.50;99.90;;;;;;5115846;28;20224;-70
2023/12/29 08:23:30;;;;;;;2.67;2.47;;;11.50;99.90;;;;;;5116064;28;20191;-71
2023/12/29 08:25:58;;;;;;;3.17;2.33;;;11.50;99.90;;;;;;5116014;28;20190;-70
2023/12/29 08:28:24;;;;;;;3.03;2.60;;;11.50;99.90;;;;;;5115771;28;20174;-70
2023/12/29 08:30:50;;;;;;;3.53;2.43;;;11.40;99.90;;;;;;5115846;28;20416;-69
2023/12/29 08:33:16;;;;;;;2.70;2.50;;;11.30;99.90;;;;;;5115418;28;20800;-70
2023/12/29 08:35:42;;;;;;;5.20;3.37;;;11.30;99.90;;;;;;5115345;28;20639;-70
2023/12/29 08:38:07;;;;;;;4.20;2.80;;;11.40;99.90;;;;;;5117773;28;20608;-70
2023/12/29 08:40:33;;;;;;;2.83;2.63;;;11.40;99.90;;;;;;5115124;28;20910;-69
2023/12/29 08:42:58;;;;;;;3.60;2.73;;;11.40;99.90;;;;;;5114940;28;20177;-70
2023/12/29 08:45:24;;;;;;;3.40;3.10;;;11.60;99.90;;;;;;5114930;28;20173;-69
2023/12/29 08:47:49;;;;;;;4.43;2.90;;;11.80;99.90;;;;;;5114978;28;20192;-69
2023/12/29 08:50:15;;;;;;;3.30;3.00;;;11.60;99.90;;;;;;5115175;28;20253;-70
2023/12/29 08:52:41;;;;;;;3.13;2.83;;;11.70;99.90;;;;;;5115091;28;20245;-70
2023/12/29 08:55:08;;;;;;;2.80;2.60;;;11.70;99.90;;;;;;5114297;28;20416;-70
2023/12/29 08:57:34;;;;;;;2.90;2.70;;;11.80;99.90;;;;;;5114227;22;20719;-69
2023/12/29 08:59:59;;;;;;;2.77;2.50;;;11.60;99.90;;;;;;5094867;28;20391;-69
2023/12/29 09:02:25;;;;;;;3.50;3.20;;;11.60;99.90;;;;;;5094867;28;20398;-70
2023/12/29 09:04:51;;;;;;;3.03;2.67;;;11.70;99.90;;;;;;5095120;28;20224;-70
2023/12/29 09:07:16;;;;;;;4.73;2.70;;;11.70;99.90;;;;;;5106693;28;20192;-69
2023/12/29 09:09:42;;;;;;;4.23;2.83;;;11.50;99.90;;;;;;5115166;28;20179;-70
2023/12/29 09:12:07;;;;;;;2.67;2.47;;;11.60;99.90;;;;;;5102986;28;20621;-70
2023/12/29 09:14:34;;;;;;;2.60;2.40;;;11.60;99.90;;;;;;5115447;28;20249;-69
2023/12/29 09:17:00;;;;;;;4.07;2.70;;;11.60;99.90;;;;;;5114898;28;20185;-69
2023/12/29 09:19:26;;;;;;;2.27;2.07;;;11.60;99.90;;;;;;5115184;28;20407;-70
2023/12/29 09:21:52;;;;;;;2.47;2.07;;;11.70;99.90;;;;;;5114765;28;20475;-69
2023/12/29 09:24:17;;;;;;;2.20;2.00;;;11.80;99.90;;;;;;5114799;28;20409;-70
2023/12/29 09:26:43;;;;;;;2.30;2.10;;;11.90;99.90;;;;;;5114583;28;20239;-71
2023/12/29 09:29:08;;;;;;;2.10;1.97;;;11.90;99.90;;;;;;5114883;28;20307;-70
2023/12/29 09:31:34;;;;;;;2.30;1.87;;;12.00;99.90;;;;;;5114429;28;20644;-71
2023/12/29 09:34:00;;;;;;;1.70;1.60;;;12.30;99.90;;;;;;5114698;28;20173;-70
2023/12/29 09:36:26;;;;;;;3.57;1.80;;;12.50;99.90;;;;;;5114663;28;20208;-70
2023/12/29 09:38:51;;;;;;;3.40;2.40;;;12.30;99.90;;;;;;5114394;28;20424;-70
2023/12/29 09:41:20;;;;;;;2.20;2.10;;;12.30;99.90;;;;;;5114349;28;20162;-70
2023/12/29 09:43:51;;;;;;;3.10;2.17;;;12.10;99.90;;;;;;5114170;28;20222;-70
2023/12/29 09:46:21;;;;;;;2.30;1.97;;;12.10;99.90;;;;;;5114872;28;20432;-70
2023/12/29 09:48:48;;;;;;;1.73;1.63;;;12.00;99.90;;;;;;5095856;28;20535;-70
2023/12/29 09:51:15;;;;;;;2.83;1.97;;;12.00;99.90;;;;;;5114067;28;20402;-70
2023/12/29 09:53:41;;;;;;;2.90;1.90;;;11.90;99.90;;;;;;5114578;28;20422;-70
2023/12/29 09:56:09;;;;;;;3.63;2.00;;;12.10;99.90;;;;;;5113770;28;20460;-70
2023/12/29 09:58:38;;;;;;;2.67;1.87;;;12.30;99.90;;;;;;5114107;28;20396;-70
2023/12/29 10:01:05;;;;;;;1.60;1.50;;;12.30;99.90;;;;;;5113858;28;20833;-70
2023/12/29 10:03:31;;;;;;;2.50;1.83;;;12.10;99.90;;;;;;5114324;28;20764;-69
2023/12/29 10:05:59;;;;;;;2.00;1.90;;;12.10;99.90;;;;;;5113642;28;20434;-69
2023/12/29 10:08:27;;;;;;;5.97;2.47;;;12.20;99.90;;;;;;5113988;28;20427;-70
2023/12/29 10:10:55;;;;;;;3.07;2.07;;;12.30;99.90;;;;;;5110622;28;20402;-70
2023/12/29 10:13:22;;;;;;;2.70;1.97;;;12.40;99.90;;;;;;5093272;28;20448;-70
2023/12/29 10:16:20;;;;;;;2.20;1.80;;;12.20;99.90;;;;;;5093549;28;20413;-70
2023/12/29 10:19:11;;;;;;;2.97;2.10;;;12.30;99.90;;;;;;5093540;28;20920;-70
2023/12/29 10:22:06;;;;;;;2.10;1.90;;;12.30;99.90;;;;;;5102261;28;20396;-70
2023/12/29 10:24:34;;;;;;;3.43;1.80;;;12.40;99.90;;;;;;5106621;28;20418;-70
2023/12/29 10:27:00;;;;;;;2.80;1.63;;;12.40;99.90;;;;;;5113714;28;20438;-70
2023/12/29 10:29:27;;;;;;;2.63;2.03;;;12.40;99.90;;;;;;5113945;28;20441;-70
2023/12/29 10:31:53;;;;;;;1.87;1.60;;;12.30;99.90;;;;;;5113428;28;20441;-70
2023/12/29 10:34:28;;;;;;;1.50;1.40;;;12.50;99.90;;;;;;5095402;28;20835;-70
2023/12/29 10:36:57;;;;;;;1.40;1.30;;;12.50;99.90;;;;;;5113547;28;20178;-70
2023/12/29 10:39:24;;;;;;;2.57;1.67;;;12.40;99.90;;;;;;5113743;28;20488;-70
2023/12/29 10:41:50;;;;;;;2.03;1.57;;;12.30;99.90;;;;;;5113214;28;20401;-70
2023/12/29 10:44:16;;;;;;;1.70;1.50;;;12.40;99.90;;;;;;5113634;28;20412;-70
2023/12/29 10:46:42;;;;;;;1.80;1.50;;;12.30;99.90;;;;;;5112814;28;20543;-71
2023/12/29 10:49:09;;;;;;;2.70;1.33;;;12.30;99.90;;;;;;5113211;28;20487;-70
2023/12/29 10:51:35;;;;;;;1.50;1.40;;;12.40;99.90;;;;;;5107460;28;20199;-69
2023/12/29 10:54:00;;;;;;;2.70;1.57;;;12.60;99.90;;;;;;5113226;28;20783;-70
2023/12/29 10:56:26;;;;;;;1.20;1.10;;;12.70;99.90;;;;;;5113118;28;20232;-70
2023/12/29 10:59:03;;;;;;;3.80;1.50;;;12.80;99.90;;;;;;5113863;28;20537;-71
2023/12/29 11:01:33;;;;;;;1.67;1.30;;;13.10;99.90;;;;;;5113170;28;20843;-70
2023/12/29 11:04:04;;;;;;;1.40;1.23;;;14.00;99.90;;;;;;5113080;28;20697;-70
2023/12/29 11:06:40;;;;;;;1.87;1.20;;;15.40;99.90;;;;;;5113939;28;20421;-70
2023/12/29 11:09:05;;;;;;;1.10;0.93;;;16.10;99.90;;;;;;5113129;28;20389;-70
2023/12/29 11:11:32;;;;;;;1.87;1.50;;;17.00;99.90;;;;;;5112868;28;20889;-70
2023/12/29 11:13:58;;;;;;;2.50;1.47;;;18.10;99.90;;;;;;5113180;28;20161;-70
2023/12/29 11:16:25;;;;;;;1.57;1.47;;;17.20;99.90;;;;;;5113268;28;20440;-70
2023/12/29 11:18:52;;;;;;;1.57;1.37;;;17.40;99.90;;;;;;5116482;28;20903;-70
2023/12/29 11:21:21;;;;;;;1.90;1.20;;;16.60;99.90;;;;;;5117100;28;20487;-70
2023/12/29 11:23:47;;;;;;;1.80;1.37;;;15.70;99.90;;;;;;5116856;28;20922;-71
2023/12/29 11:26:13;;;;;;;2.13;1.17;;;16.00;99.90;;;;;;5117065;28;20414;-70
2023/12/29 11:28:39;;;;;;;1.43;1.20;;;16.60;99.90;;;;;;5117106;28;20538;-70
2023/12/29 11:31:05;;;;;;;2.80;1.40;;;16.90;99.90;;;;;;5118950;28;20477;-70
2023/12/29 11:33:38;;;;;;;2.43;1.40;;;17.00;99.90;;;;;;5117516;28;20446;-69
2023/12/29 11:36:16;;;;;;;1.20;1.10;;;17.10;99.90;;;;;;5117380;28;20462;-70
2023/12/29 11:38:49;;;;;;;1.50;1.40;;;16.10;99.90;;;;;;5117209;28;20405;-70
2023/12/29 11:41:42;;;;;;;1.20;1.00;;;15.50;99.90;;;;;;5117048;28;20383;-70
2023/12/29 11:44:07;;;;;;;2.17;1.33;;;15.70;99.90;;;;;;5116891;28;20751;-70
2023/12/29 11:46:37;;;;;;;1.27;1.17;;;15.40;99.90;;;;;;5116740;28;20422;-69
2023/12/29 11:49:04;;;;;;;1.43;1.30;;;15.40;99.90;;;;;;5116634;28;20645;-70
2023/12/29 11:51:39;;;;;;;2.20;1.67;;;15.00;99.90;;;;;;5116686;28;20409;-70
2023/12/29 11:54:06;;;;;;;1.83;1.47;;;14.80;99.90;;;;;;5116887;28;20387;-70
2023/12/29 11:56:34;;;;;;;1.50;1.20;;;15.10;99.90;;;;;;5116406;28;20535;-70
2023/12/29 11:59:25;;;;;;;2.07;1.67;;;16.00;99.90;;;;;;5116743;28;20418;-70
2023/12/29 12:01:52;;;;;;;2.07;1.40;;;16.50;99.90;;;;;;5116638;28;20403;-70
2023/12/29 12:04:40;;;;;;;2.30;1.50;;;16.40;99.90;;;;;;5116671;28;20421;-70
2023/12/29 12:07:15;;;;;;;1.60;1.10;;;16.90;99.90;;;;;;5116659;28;20418;-70
2023/12/29 12:09:41;;;;;;;1.80;1.20;;;17.20;99.90;;;;;;5116762;28;20389;-70
2023/12/29 12:12:07;;;;;;;2.23;1.13;;;16.70;99.90;;;;;;5105241;28;20526;-71
2023/12/29 12:14:52;;;;;;;1.73;1.40;;;17.00;99.90;;;;;;5116208;28;20247;-70
2023/12/29 12:17:32;;;;;;;1.20;1.10;;;16.60;99.90;;;;;;5116039;28;20181;-70
2023/12/29 12:20:08;;;;;;;1.40;1.20;;;17.40;99.90;;;;;;5116043;28;20413;-69
2023/12/29 12:22:35;;;;;;;1.63;1.33;;;16.90;99.90;;;;;;5101195;28;20509;-69
2023/12/29 12:25:01;;;;;;;1.50;1.20;;;15.80;99.90;;;;;;5095633;28;20457;-70
2023/12/29 12:27:28;;;;;;;1.50;1.30;;;16.00;99.90;;;;;;5095638;28;20423;-70
2023/12/29 12:30:01;;;;;;;2.00;1.77;;;16.80;99.90;;;;;;5095133;28;20403;-71
2023/12/29 12:32:28;;;;;;;3.00;1.60;;;16.90;99.90;;;;;;5108892;28;20523;-70
2023/12/29 12:35:00;;;;;;;1.20;1.10;;;16.40;99.90;;;;;;5115527;28;20823;-70
2023/12/29 12:37:28;;;;;;;1.43;1.33;;;16.00;99.90;;;;;;5115500;28;20433;-70
2023/12/29 12:39:54;;;;;;;2.90;1.57;;;15.70;99.90;;;;;;5115560;28;20406;-71
2023/12/29 12:42:20;;;;;;;1.67;1.23;;;14.90;99.90;;;;;;5115617;28;20942;-70
2023/12/29 12:45:11;;;;;;;1.77;1.50;;;14.40;99.90;;;;;;5115737;28;20408;-71
2023/12/29 12:47:44;;;;;;;1.47;1.37;;;14.00;99.90;;;;;;5115786;28;20515;-71